Time;durP1;ratioP1;P1;durP2;ratioP2;P2;SDS_P1;SDS_P2;PMS_P1;PMS_P2;Temp;Humidity;BMP_temperature;BMP_pressure;BME280_temperature;BME280_humidity;BME280_pressure;Samples;Min_cycle;Max_cycle;Signal;HPM_P1;HPM_P2
2024/01/12 00:00:45;;;;;;;34.17;15.18;;;;;;;1.50;85.50;103440.97;7394700;19;20026;-60
2024/01/12 00:03:13;;;;;;;29.33;14.43;;;;;;;1.60;85.33;103441.06;7394364;19;20023;-60
2024/01/12 00:05:41;;;;;;;34.50;15.00;;;;;;;1.60;85.22;103433.22;7393832;19;20018;-57
2024/01/12 00:08:09;;;;;;;34.35;15.68;;;;;;;1.57;85.30;103438.44;7394092;19;20026;-60
2024/01/12 00:10:37;;;;;;;35.08;14.98;;;;;;;1.59;85.52;103434.06;7391315;19;20492;-60
2024/01/12 00:13:08;;;;;;;37.25;16.52;;;;;;;1.53;85.50;103439.28;7393936;19;20010;-59
2024/01/12 00:15:36;;;;;;;37.80;15.13;;;;;;;1.65;85.52;103447.19;7392417;19;20039;-58
2024/01/12 00:18:04;;;;;;;36.78;15.00;;;;;;;1.60;85.63;103438.47;7392155;19;20025;-59
2024/01/12 00:20:33;;;;;;;39.65;15.38;;;;;;;1.56;85.73;103434.03;7390578;19;20483;-60
2024/01/12 00:23:01;;;;;;;41.42;16.33;;;;;;;1.63;86.31;103429.75;7392379;19;20352;-59
2024/01/12 00:25:29;;;;;;;56.03;17.23;;;;;;;1.72;86.02;103437.66;7391676;19;20374;-59
2024/01/12 00:27:57;;;;;;;40.45;15.95;;;;;;;1.73;86.04;103428.94;7393272;19;20490;-59
2024/01/12 00:30:25;;;;;;;49.63;18.38;;;;;;;1.83;86.35;103440.31;7390788;19;20466;-59
2024/01/12 00:32:53;;;;;;;40.22;16.88;;;;;;;1.87;85.96;103435.16;7393137;19;20038;-60
2024/01/12 00:35:21;;;;;;;50.45;18.33;;;;;;;1.86;86.36;103432.50;7392987;19;20019;-60
2024/01/12 00:37:49;;;;;;;46.20;17.17;;;;;;;1.89;87.03;103437.75;7390551;19;20377;-60
2024/01/12 00:40:17;;;;;;;52.10;17.90;;;;;;;1.86;86.44;103432.50;7390216;19;20033;-58
2024/01/12 00:42:45;;;;;;;38.47;16.92;;;;;;;1.93;87.24;103426.44;7391283;19;20026;-60
2024/01/12 00:45:13;;;;;;;46.95;17.38;;;;;;;2.06;86.86;103424.75;7392709;19;20018;-60
2024/01/12 00:47:41;;;;;;;92.40;18.63;;;;;;;2.01;87.19;103431.72;7392145;19;20397;-60
2024/01/12 00:50:10;;;;;;;70.95;17.77;;;;;;;1.95;87.81;103433.44;7389645;19;20160;-60
2024/01/12 00:52:38;;;;;;;48.35;17.17;;;;;;;2.05;88.62;103425.63;7392854;19;20095;-61
2024/01/12 00:55:06;;;;;;;63.00;16.10;;;;;;;2.12;87.90;103424.81;7391906;19;20746;-60
2024/01/12 00:57:34;;;;;;;67.00;14.80;;;;;;;2.13;88.46;103421.31;7389033;19;20026;-61
2024/01/12 01:00:04;;;;;;;79.47;15.68;;;;;;;2.08;88.70;103415.22;7389861;19;20031;-60
2024/01/12 01:02:32;;;;;;;69.47;12.52;;;;;;;2.08;89.11;103426.53;7391641;19;20031;-59
2024/01/12 01:05:00;;;;;;;67.07;11.80;;;;;;;2.05;89.14;103423.03;7391271;19;20014;-59
2024/01/12 01:07:29;;;;;;;47.00;10.55;;;;;;;2.02;88.58;103418.66;7391615;19;20089;-59
2024/01/12 01:09:57;;;;;;;51.97;11.10;;;;;;;1.98;88.41;103427.34;7389580;19;20030;-60
2024/01/12 01:12:25;;;;;;;57.08;10.38;;;;;;;1.96;88.48;103421.25;7390201;19;20074;-59
2024/01/12 01:14:53;;;;;;;38.58;9.25;;;;;;;1.94;88.61;103430.81;7391538;19;20018;-60
2024/01/12 01:17:20;;;;;;;56.30;10.25;;;;;;;2.02;89.19;103423.88;7390230;19;20019;-60
2024/01/12 01:19:49;;;;;;;57.58;10.95;;;;;;;2.02;88.87;103420.38;7389293;19;20014;-61
2024/01/12 01:22:17;;;;;;;39.22;10.35;;;;;;;1.91;88.51;103410.78;7391336;19;20483;-63
2024/01/12 01:24:45;;;;;;;37.53;9.40;;;;;;;1.98;88.91;103422.13;7391189;19;20018;-62
2024/01/12 01:27:13;;;;;;;41.05;9.10;;;;;;;1.91;89.03;103433.44;7389571;19;20019;-61
2024/01/12 01:29:41;;;;;;;51.40;9.27;;;;;;;2.04;89.74;103431.75;7389378;19;20049;-60
2024/01/12 01:32:09;;;;;;;54.03;8.88;;;;;;;2.04;89.92;103427.38;7391352;19;20022;-63
2024/01/12 01:34:37;;;;;;;45.17;9.00;;;;;;;2.09;90.21;103436.09;7390803;19;20022;-61
2024/01/12 01:37:05;;;;;;;57.85;8.73;;;;;;;2.13;90.63;103432.66;7389717;19;20022;-61
2024/01/12 01:39:33;;;;;;;40.90;8.73;;;;;;;2.12;89.78;103433.53;7388986;19;20090;-61
2024/01/12 01:42:02;;;;;;;68.85;9.57;;;;;;;2.12;90.46;103433.53;7391124;19;20084;-61
2024/01/12 01:44:30;;;;;;;42.80;8.93;;;;;;;2.09;90.25;103433.50;7390086;19;20451;-59
2024/01/12 01:46:59;;;;;;;65.85;9.57;;;;;;;2.05;89.88;103436.97;7389168;19;20015;-63
2024/01/12 01:49:28;;;;;;;48.33;10.10;;;;;;;2.03;90.08;103440.47;7389260;19;20035;-63
2024/01/12 01:51:57;;;;;;;34.20;9.85;;;;;;;2.03;90.35;103443.06;7390572;19;20535;-61
2024/01/12 01:54:25;;;;;;;50.33;10.75;;;;;;;2.05;90.15;103438.72;7390558;19;20386;-59
2024/01/12 01:56:53;;;;;;;46.70;10.65;;;;;;;1.99;89.49;103439.56;7389596;19;20027;-59
2024/01/12 01:59:21;;;;;;;45.08;10.05;;;;;;;1.95;89.71;103430.84;7388769;19;20018;-58
2024/01/12 02:01:50;;;;;;;47.78;10.30;;;;;;;2.05;89.48;103436.97;7390076;19;20018;-59
2024/01/12 02:04:19;;;;;;;42.28;9.98;;;;;;;2.01;89.25;103432.59;7388268;19;20118;-60
2024/01/12 02:06:47;;;;;;;35.47;10.20;;;;;;;2.01;89.35;103437.81;7389947;19;20018;-59
2024/01/12 02:09:16;;;;;;;49.88;10.20;;;;;;;1.95;89.23;103435.19;7386908;19;20022;-60
2024/01/12 02:11:44;;;;;;;33.90;10.07;;;;;;;1.85;88.70;103429.03;7389622;19;20486;-59
2024/01/12 02:14:12;;;;;;;40.10;10.25;;;;;;;1.84;88.69;103422.06;7389760;19;20347;-55
2024/01/12 02:16:41;;;;;;;26.83;9.73;;;;;;;1.77;88.80;103416.78;7388196;19;20033;-59
2024/01/12 02:19:09;;;;;;;25.73;10.52;;;;;;;1.78;88.64;103414.16;7388306;19;20018;-59
2024/01/12 02:21:37;;;;;;;40.17;10.38;;;;;;;1.79;88.33;103413.31;7389808;19;20043;-60
2024/01/12 02:24:04;;;;;;;41.85;10.52;;;;;;;1.83;88.48;103412.47;7389826;19;20043;-60
2024/01/12 02:26:33;;;;;;;24.35;10.15;;;;;;;1.80;88.29;103419.44;7389844;19;20019;-59
2024/01/12 02:29:03;;;;;;;26.33;10.00;;;;;;;1.76;87.86;103410.69;7386586;19;20397;-60
2024/01/12 02:31:31;;;;;;;23.35;9.20;;;;;;;1.68;87.86;103396.72;7389075;19;20037;-60
2024/01/12 02:33:59;;;;;;;28.83;10.38;;;;;;;1.77;87.61;103404.59;7389163;19;20019;-59
2024/01/12 02:36:28;;;;;;;28.27;10.40;;;;;;;1.83;87.26;103409.88;7389084;19;20014;-60
2024/01/12 02:38:56;;;;;;;29.00;10.60;;;;;;;1.86;87.20;103403.75;7388318;19;20022;-60
2024/01/12 02:41:24;;;;;;;24.40;11.23;;;;;;;1.90;87.10;103408.13;7389263;19;20043;-58
2024/01/12 02:43:52;;;;;;;27.55;12.27;;;;;;;1.89;86.88;103396.81;7389154;19;20193;-57
2024/01/12 02:46:20;;;;;;;30.80;14.07;;;;;;;1.82;86.91;103387.19;7389054;19;20428;-60
2024/01/12 02:48:48;;;;;;;31.52;15.02;;;;;;;1.75;86.66;103381.94;7394682;19;20446;-60
2024/01/12 02:51:16;;;;;;;28.88;14.68;;;;;;;1.80;86.64;103382.84;7396399;19;20018;-59
2024/01/12 02:53:44;;;;;;;30.70;14.20;;;;;;;1.87;86.41;103379.38;7396483;19;20014;-59
2024/01/12 02:56:12;;;;;;;26.52;14.15;;;;;;;1.86;86.73;103381.13;7395129;19;20026;-59
2024/01/12 02:58:40;;;;;;;33.95;14.32;;;;;;;1.88;86.53;103376.78;7391568;19;20082;-59
2024/01/12 03:01:08;;;;;;;25.48;13.68;;;;;;;1.87;86.25;103363.72;7394887;19;20021;-59
2024/01/12 03:03:36;;;;;;;28.38;12.15;;;;;;;1.77;86.22;103359.31;7395461;19;20022;-59
2024/01/12 03:06:06;;;;;;;23.40;11.48;;;;;;;1.76;86.38;103379.34;7395919;19;20029;-60
2024/01/12 03:08:34;;;;;;;26.08;10.27;;;;;;;1.85;86.08;103388.97;7395516;19;20022;-61
2024/01/12 03:11:02;;;;;;;21.73;10.05;;;;;;;1.76;85.22;103371.50;7395012;19;20675;-60
2024/01/12 03:13:32;;;;;;;15.88;8.27;;;;;;;1.69;85.37;103382.78;7393798;19;20022;-60
2024/01/12 03:16:01;;;;;;;25.13;7.70;;;;;;;1.68;85.62;103366.25;7395430;19;20042;-60
2024/01/12 03:18:31;;;;;;;17.40;7.50;;;;;;;1.71;85.72;103368.84;7393022;19;20018;-61
2024/01/12 03:21:00;;;;;;;22.88;7.47;;;;;;;1.59;85.92;103357.47;7395343;19;20018;-62
2024/01/12 03:23:28;;;;;;;20.35;7.35;;;;;;;1.68;86.38;103368.00;7396020;19;20010;-62
2024/01/12 03:25:58;;;;;;;17.30;7.70;;;;;;;1.70;86.80;103369.72;7395890;19;20381;-59
2024/01/12 03:28:26;;;;;;;27.95;8.50;;;;;;;1.69;86.32;103357.53;7393488;19;20022;-59
2024/01/12 03:30:54;;;;;;;20.65;9.13;;;;;;;1.68;86.74;103353.19;7396944;19;20501;-61
2024/01/12 03:33:22;;;;;;;17.73;8.10;;;;;;;1.68;86.48;103350.56;7396582;19;20021;-62
2024/01/12 03:35:51;;;;;;;22.30;8.98;;;;;;;1.78;86.55;103348.00;7395965;19;20051;-61
2024/01/12 03:38:18;;;;;;;20.63;9.50;;;;;;;1.85;86.42;103350.66;7394614;19;20022;-61
2024/01/12 03:40:47;;;;;;;26.13;9.63;;;;;;;1.87;85.98;103342.81;7397213;19;20047;-60
2024/01/12 03:43:14;;;;;;;21.98;9.98;;;;;;;1.82;86.45;103349.75;7396168;19;20033;-59
2024/01/12 03:45:42;;;;;;;21.90;10.27;;;;;;;1.77;86.44;103352.34;7396572;19;20018;-61
2024/01/12 03:48:11;;;;;;;21.05;9.43;;;;;;;1.85;86.36;103348.03;7395530;19;20018;-60
2024/01/12 03:50:39;;;;;;;23.63;11.43;;;;;;;1.91;85.88;103345.47;7395173;19;20021;-62
2024/01/12 03:53:07;;;;;;;23.83;11.40;;;;;;;1.99;85.98;103352.47;7394716;19;20606;-64
2024/01/12 03:55:35;;;;;;;22.35;11.00;;;;;;;1.99;85.90;103349.84;7393664;19;20082;-64
2024/01/12 03:58:04;;;;;;;24.55;11.25;;;;;;;1.94;85.55;103350.69;7392689;19;20313;-64
2024/01/12 04:00:31;;;;;;;26.83;12.27;;;;;;;2.01;85.87;103342.88;7390727;19;20022;-64
2024/01/12 04:03:00;;;;;;;26.10;12.27;;;;;;;1.92;85.25;103341.09;7394540;19;20487;-63
2024/01/12 04:05:28;;;;;;;26.90;12.05;;;;;;;1.94;85.51;103331.50;7393744;19;20030;-64
2024/01/12 04:07:57;;;;;;;24.20;11.13;;;;;;;1.89;85.39;103335.84;7395919;19;20365;-63
2024/01/12 04:10:25;;;;;;;22.33;11.20;;;;;;;1.83;85.69;103341.03;7392343;19;20035;-63
2024/01/12 04:12:53;;;;;;;27.50;11.43;;;;;;;1.81;86.19;103334.97;7395522;19;20066;-63
2024/01/12 04:15:21;;;;;;;27.75;12.10;;;;;;;1.88;85.84;103332.38;7394169;19;20050;-64
2024/01/12 04:17:49;;;;;;;23.65;10.90;;;;;;;1.88;85.69;103339.34;7394131;19;20035;-64
2024/01/12 04:20:17;;;;;;;26.20;12.13;;;;;;;1.89;86.06;103338.47;7393915;19;20348;-64
2024/01/12 04:22:45;;;;;;;24.77;11.73;;;;;;;1.92;85.47;103336.75;7396166;19;20018;-61
2024/01/12 04:25:13;;;;;;;36.15;18.05;;;;;;;1.87;85.46;103342.81;7394066;19;20014;-58
2024/01/12 04:27:41;;;;;;;32.70;16.75;;;;;;;1.90;85.08;103346.31;7395381;19;20035;-60
2024/01/12 04:30:09;;;;;;;32.85;14.50;;;;;;;1.89;84.91;103341.97;7393130;19;20085;-60
2024/01/12 04:32:37;;;;;;;29.52;13.95;;;;;;;1.84;85.06;103343.69;7394876;19;20022;-59
2024/01/12 04:35:07;;;;;;;27.40;12.85;;;;;;;1.78;85.42;103335.81;7395714;19;20047;-60
2024/01/12 04:37:35;;;;;;;26.25;12.57;;;;;;;1.87;85.37;103328.03;7393516;19;20026;-61
2024/01/12 04:40:04;;;;;;;25.48;13.25;;;;;;;1.87;85.29;103327.13;7391660;19;20493;-59
2024/01/12 04:42:32;;;;;;;25.23;12.23;;;;;;;1.89;85.22;103318.44;7393585;19;20026;-62
2024/01/12 04:44:59;;;;;;;27.90;13.02;;;;;;;1.77;85.05;103314.91;7393959;19;20043;-61
2024/01/12 04:47:30;;;;;;;24.80;12.40;;;;;;;1.87;85.70;103314.97;7393877;19;20018;-63
2024/01/12 04:49:58;;;;;;;31.52;13.65;;;;;;;1.93;84.86;103306.25;7389757;19;20559;-60
2024/01/12 04:52:27;;;;;;;22.92;12.65;;;;;;;1.59;85.54;103280.00;7393690;19;20015;-59
2024/01/12 04:54:55;;;;;;;26.67;13.52;;;;;;;1.79;85.12;103292.28;7392022;19;20035;-60
2024/01/12 04:57:23;;;;;;;28.95;14.45;;;;;;;1.84;84.95;103306.25;7392728;19;20018;-60
2024/01/12 04:59:51;;;;;;;29.70;15.35;;;;;;;1.75;84.60;103301.84;7391386;19;20018;-60
2024/01/12 05:02:19;;;;;;;31.25;15.65;;;;;;;1.65;84.72;103284.41;7392954;19;20384;-59
2024/01/12 05:04:47;;;;;;;28.42;15.10;;;;;;;1.59;84.99;103289.56;7392585;19;20025;-60
2024/01/12 05:07:15;;;;;;;27.90;15.15;;;;;;;1.55;84.71;103293.03;7392855;19;20077;-59
2024/01/12 05:09:43;;;;;;;37.50;13.60;;;;;;;1.50;85.11;103284.31;7389654;19;20021;-60
2024/01/12 05:12:13;;;;;;;25.88;12.45;;;;;;;1.45;85.19;103292.09;7392492;19;20022;-60
2024/01/12 05:14:41;;;;;;;24.48;11.57;;;;;;;1.44;85.48;103290.38;7392083;19;20031;-59
2024/01/12 05:17:12;;;;;;;27.08;9.18;;;;;;;1.53;85.17;103293.06;7392000;19;20349;-61
2024/01/12 05:19:40;;;;;;;18.58;9.23;;;;;;;1.51;85.03;103292.16;7390183;19;20039;-61
2024/01/12 05:22:09;;;;;;;28.15;14.02;;;;;;;1.52;84.71;103293.03;7391967;19;20360;-61
2024/01/12 05:24:37;;;;;;;33.70;15.55;;;;;;;1.55;84.63;103288.69;7389982;19;20105;-63
2024/01/12 05:27:05;;;;;;;30.05;14.73;;;;;;;1.45;84.75;103284.28;7390305;19;20356;-63
2024/01/12 05:29:33;;;;;;;30.08;14.30;;;;;;;1.43;85.01;103288.63;7389613;19;20019;-63
2024/01/12 05:32:02;;;;;;;30.13;14.32;;;;;;;1.51;85.12;103294.75;7391074;19;20085;-63
2024/01/12 05:34:30;;;;;;;29.67;15.02;;;;;;;1.52;84.91;103306.94;7390751;19;20019;-62
2024/01/12 05:36:58;;;;;;;30.30;14.77;;;;;;;1.51;85.17;103307.81;7390892;19;20039;-64
2024/01/12 05:39:26;;;;;;;29.60;16.08;;;;;;;1.54;85.75;103318.28;7387137;19;20027;-64
2024/01/12 05:41:54;;;;;;;28.63;14.95;;;;;;;1.60;85.17;103320.03;7390493;19;20021;-64
2024/01/12 05:44:22;;;;;;;22.58;12.23;;;;;;;1.57;85.53;103313.09;7390596;19;20377;-61
2024/01/12 05:46:50;;;;;;;26.23;11.68;;;;;;;1.68;85.62;103321.84;7390488;19;20363;-64
2024/01/12 05:49:18;;;;;;;17.35;9.10;;;;;;;1.70;84.99;103317.50;7389199;19;20042;-64
2024/01/12 05:51:47;;;;;;;17.80;7.28;;;;;;;1.67;84.71;103319.22;7390455;19;20042;-64
2024/01/12 05:54:15;;;;;;;13.93;5.75;;;;;;;1.71;85.21;103319.22;7390134;19;20070;-64
2024/01/12 05:56:43;;;;;;;14.27;5.88;;;;;;;1.68;84.98;103323.59;7390001;19;20018;-64
2024/01/12 05:59:11;;;;;;;14.57;5.80;;;;;;;1.72;85.15;103325.34;7386333;19;20025;-64
2024/01/12 06:01:39;;;;;;;18.00;6.68;;;;;;;1.77;85.12;103318.41;7389990;19;20074;-63
2024/01/12 06:04:07;;;;;;;18.20;6.57;;;;;;;1.78;84.85;103286.19;7392860;19;20022;-62
2024/01/12 06:06:35;;;;;;;19.20;8.02;;;;;;;1.76;84.93;103293.16;7393947;19;20027;-62
2024/01/12 06:09:05;;;;;;;21.52;8.15;;;;;;;1.72;85.94;103299.22;7383189;19;20335;-62
2024/01/12 06:11:33;;;;;;;18.90;7.38;;;;;;;1.88;86.19;103311.47;7395422;19;20065;-63
2024/01/12 06:14:02;;;;;;;23.70;8.85;;;;;;;1.93;86.20;103301.91;7390126;19;20018;-63
2024/01/12 06:16:30;;;;;;;19.90;7.35;;;;;;;2.03;86.48;103308.06;7390367;19;20424;-64
2024/01/12 06:18:58;;;;;;;24.67;7.32;;;;;;;2.10;86.38;103314.16;7386456;19;20023;-62
2024/01/12 06:21:26;;;;;;;24.45;6.82;;;;;;;2.10;86.46;103311.53;7389939;19;20027;-62
2024/01/12 06:23:54;;;;;;;17.13;6.72;;;;;;;2.11;86.64;103311.56;7399941;19;20460;-62
2024/01/12 06:26:22;;;;;;;14.07;6.70;;;;;;;2.10;86.82;103299.38;7401283;19;20010;-63
2024/01/12 06:28:50;;;;;;;18.38;7.38;;;;;;;2.13;86.87;103298.47;7398307;19;20503;-62
2024/01/12 06:31:18;;;;;;;18.83;7.63;;;;;;;2.25;86.47;103308.09;7401395;19;20017;-61
2024/01/12 06:33:46;;;;;;;21.63;7.82;;;;;;;2.26;86.58;103300.28;7398489;19;20408;-61
2024/01/12 06:36:14;;;;;;;19.63;8.82;;;;;;;2.28;86.74;103306.34;7397314;19;20015;-63
2024/01/12 06:38:42;;;;;;;21.08;10.00;;;;;;;2.26;86.22;103300.28;7394766;19;20022;-63
2024/01/12 06:41:10;;;;;;;23.00;10.23;;;;;;;2.28;85.92;103297.66;7400086;19;20026;-63
2024/01/12 06:43:38;;;;;;;22.73;9.48;;;;;;;2.35;86.32;103299.41;7397239;19;20018;-63
2024/01/12 06:46:06;;;;;;;22.02;9.02;;;;;;;2.34;86.08;103289.81;7396849;19;20026;-63
2024/01/12 06:48:34;;;;;;;19.95;7.85;;;;;;;2.37;86.27;103292.44;7395355;19;20049;-62
2024/01/12 06:51:03;;;;;;;17.80;7.38;;;;;;;2.32;86.43;103286.31;7395405;19;20522;-63
2024/01/12 06:53:31;;;;;;;21.35;7.13;;;;;;;2.33;86.86;103283.72;7398101;19;20037;-63
2024/01/12 06:55:59;;;;;;;16.00;6.68;;;;;;;2.39;86.93;103288.94;7397565;19;20116;-62
2024/01/12 06:58:27;;;;;;;19.75;6.57;;;;;;;2.36;86.18;103285.44;7396538;19;20377;-62
2024/01/12 07:00:56;;;;;;;18.27;7.15;;;;;;;2.30;86.96;103302.03;7397903;19;20143;-63
2024/01/12 07:03:24;;;;;;;21.50;6.38;;;;;;;2.30;87.07;103296.78;7397143;19;20047;-63
2024/01/12 07:05:52;;;;;;;20.00;6.38;;;;;;;2.34;86.94;103290.69;7395344;19;20499;-63
2024/01/12 07:08:21;;;;;;;20.20;6.55;;;;;;;2.36;87.45;103288.06;7395309;19;20030;-63
2024/01/12 07:10:50;;;;;;;20.13;7.15;;;;;;;2.37;87.10;103274.16;7396069;19;20029;-62
2024/01/12 07:13:18;;;;;;;15.20;6.20;;;;;;;2.42;87.55;103285.47;7393833;19;20026;-62
2024/01/12 07:15:46;;;;;;;21.08;7.32;;;;;;;2.42;86.98;103290.69;7396225;19;20018;-63
2024/01/12 07:18:14;;;;;;;19.60;7.57;;;;;;;2.39;87.25;103291.56;7394326;19;20011;-62
2024/01/12 07:20:42;;;;;;;21.98;7.53;;;;;;;2.40;87.31;103285.50;7396050;19;20006;-61
2024/01/12 07:23:10;;;;;;;20.30;8.02;;;;;;;2.48;87.48;103280.25;7396146;19;20526;-63
2024/01/12 07:25:38;;;;;;;16.00;7.65;;;;;;;2.35;87.17;103270.66;7394869;19;20049;-64
2024/01/12 07:28:07;;;;;;;24.58;8.75;;;;;;;2.45;87.57;103280.25;7395347;19;20018;-64
2024/01/12 07:30:36;;;;;;;18.60;8.25;;;;;;;2.51;87.50;103279.38;7390521;19;20503;-64
2024/01/12 07:33:04;;;;;;;21.65;8.77;;;;;;;2.48;87.17;103250.59;7396206;19;20014;-63
2024/01/12 07:35:32;;;;;;;23.33;8.75;;;;;;;2.39;87.31;103231.41;7396403;19;20014;-63
2024/01/12 07:38:00;;;;;;;27.85;8.82;;;;;;;2.51;87.15;103245.38;7395572;19;20007;-64
2024/01/12 07:40:28;;;;;;;20.83;8.68;;;;;;;2.56;87.13;103233.19;7390879;19;20019;-64
2024/01/12 07:42:56;;;;;;;29.98;9.10;;;;;;;2.57;87.05;103238.41;7396022;19;20507;-63
2024/01/12 07:45:24;;;;;;;19.42;9.48;;;;;;;2.50;87.02;103236.66;7397014;19;20473;-63
2024/01/12 07:47:52;;;;;;;17.20;8.18;;;;;;;2.57;86.79;103241.03;7395111;19;20010;-63
2024/01/12 07:50:20;;;;;;;21.42;9.40;;;;;;;2.62;86.32;103246.25;7392745;19;20015;-61
2024/01/12 07:52:48;;;;;;;22.80;10.07;;;;;;;2.59;86.14;103241.88;7395724;19;20023;-63
2024/01/12 07:55:16;;;;;;;19.52;9.35;;;;;;;2.64;86.49;103250.63;7394170;19;20094;-63
2024/01/12 07:57:44;;;;;;;20.38;10.10;;;;;;;2.69;86.24;103250.59;7393621;19;20026;-62
2024/01/12 08:00:12;;;;;;;19.08;10.02;;;;;;;2.69;85.73;103242.75;7392268;19;20010;-60
2024/01/12 08:02:40;;;;;;;24.98;10.55;;;;;;;2.72;86.38;103244.50;7395049;19;20054;-60
2024/01/12 08:05:08;;;;;;;22.83;10.60;;;;;;;2.79;86.18;103247.13;7394820;19;20038;-64
2024/01/12 08:07:37;;;;;;;23.38;11.10;;;;;;;2.72;85.99;103247.13;7393627;19;20355;-59
2024/01/12 08:10:05;;;;;;;20.27;9.70;;;;;;;2.80;86.51;103253.22;7392127;19;20026;-59
2024/01/12 08:12:33;;;;;;;20.33;9.88;;;;;;;2.78;85.89;103232.28;7395499;19;20022;-61
2024/01/12 08:15:01;;;;;;;20.77;10.40;;;;;;;2.82;85.76;103231.41;7393522;19;20519;-61
2024/01/12 08:17:30;;;;;;;22.15;11.45;;;;;;;2.82;85.87;103226.16;7394206;19;20251;-63
2024/01/12 08:19:57;;;;;;;19.27;9.98;;;;;;;2.85;85.63;103220.06;7392617;19;20029;-61
2024/01/12 08:22:25;;;;;;;19.52;10.48;;;;;;;2.97;85.53;103227.88;7394281;19;20491;-61
2024/01/12 08:24:53;;;;;;;22.70;10.00;;;;;;;2.95;85.50;103224.41;7392386;19;20019;-61
2024/01/12 08:27:21;;;;;;;22.25;10.88;;;;;;;2.89;85.53;103224.41;7392720;19;20791;-63
2024/01/12 08:29:49;;;;;;;21.33;10.15;;;;;;;2.90;85.69;103219.19;7391359;19;20011;-62
2024/01/12 08:32:18;;;;;;;22.15;10.13;;;;;;;2.90;85.50;103213.97;7393771;19;20026;-60
2024/01/12 08:34:47;;;;;;;20.30;9.65;;;;;;;3.12;85.56;103226.97;7393548;19;20364;-60
2024/01/12 08:37:15;;;;;;;19.70;9.73;;;;;;;3.11;85.05;103210.41;7393736;19;20019;-60
2024/01/12 08:39:43;;;;;;;20.90;10.10;;;;;;;3.11;85.06;103209.53;7394992;19;20025;-61
2024/01/12 08:42:11;;;;;;;23.58;10.45;;;;;;;3.16;85.47;103208.63;7392828;19;20039;-61
2024/01/12 08:44:39;;;;;;;19.48;9.98;;;;;;;3.16;85.03;103206.03;7391169;19;20010;-61
2024/01/12 08:47:07;;;;;;;18.05;9.32;;;;;;;3.08;85.00;103201.69;7393042;19;20355;-60
2024/01/12 08:49:35;;;;;;;18.15;9.38;;;;;;;3.11;85.32;103215.66;7390527;19;20396;-61
2024/01/12 08:52:03;;;;;;;19.08;9.52;;;;;;;3.13;85.53;103213.91;7392414;19;20116;-62
2024/01/12 08:54:31;;;;;;;20.95;10.18;;;;;;;3.14;85.62;103210.41;7393438;19;20026;-62
2024/01/12 08:56:59;;;;;;;17.33;9.10;;;;;;;3.17;85.37;103209.53;7393002;19;20037;-62
2024/01/12 08:59:28;;;;;;;17.45;8.52;;;;;;;3.15;85.15;103206.03;7390619;19;20081;-62
2024/01/12 09:01:57;;;;;;;20.00;9.18;;;;;;;3.13;85.59;103199.94;7392616;19;20028;-62
2024/01/12 09:04:27;;;;;;;17.90;9.40;;;;;;;3.07;85.44;103185.13;7392342;19;20026;-62
2024/01/12 09:06:55;;;;;;;17.50;8.88;;;;;;;3.15;85.50;103191.19;7391021;19;20015;-62
2024/01/12 09:09:23;;;;;;;17.73;8.98;;;;;;;3.23;85.40;103195.53;7393860;19;20366;-62
2024/01/12 09:11:52;;;;;;;15.85;8.20;;;;;;;3.23;85.30;103193.78;7393108;19;20029;-63
2024/01/12 09:14:19;;;;;;;16.45;8.18;;;;;;;3.21;85.20;103190.31;7392427;19;20043;-61
2024/01/12 09:16:47;;;;;;;17.13;8.40;;;;;;;3.24;85.28;103192.03;7391743;19;20486;-60
2024/01/12 09:19:17;;;;;;;17.10;8.15;;;;;;;3.26;85.16;103190.28;7390443;19;20027;-61
2024/01/12 09:21:45;;;;;;;14.82;7.90;;;;;;;3.24;85.23;103186.78;7392327;19;20019;-61
2024/01/12 09:24:13;;;;;;;15.18;7.82;;;;;;;3.25;85.21;103176.34;7390439;19;20018;-61
2024/01/12 09:26:41;;;;;;;15.77;7.82;;;;;;;3.21;85.89;103166.75;7389470;19;20014;-63
2024/01/12 09:29:09;;;;;;;16.30;8.02;;;;;;;3.30;85.85;103174.56;7388372;19;20047;-62
2024/01/12 09:31:38;;;;;;;15.88;7.88;;;;;;;3.32;85.43;103185.91;7389426;19;20370;-61
2024/01/12 09:34:06;;;;;;;18.23;8.30;;;;;;;3.27;85.48;103178.94;7390956;19;20039;-62
2024/01/12 09:36:35;;;;;;;17.40;8.82;;;;;;;3.39;85.42;103197.22;7390833;19;20486;-60
2024/01/12 09:39:02;;;;;;;17.88;9.52;;;;;;;3.45;85.54;103185.84;7391608;19;20018;-61
2024/01/12 09:41:43;;;;;;;25.25;11.98;;;;;;;3.48;85.26;103173.63;7390400;19;20425;-60
2024/01/12 09:44:13;;;;;;;20.77;10.50;;;;;;;3.42;85.59;103169.25;7390738;19;20022;-61
2024/01/12 09:46:55;;;;;;;19.27;9.88;;;;;;;3.65;85.01;103176.13;7389618;19;20078;-61
2024/01/12 09:49:26;;;;;;;16.23;9.07;;;;;;;3.70;84.96;103184.81;7388976;19;20029;-60
2024/01/12 09:51:55;;;;;;;20.90;10.70;;;;;;;3.60;85.54;103172.69;7388399;19;20487;-61
2024/01/12 09:54:23;;;;;;;20.55;10.55;;;;;;;3.58;85.37;103171.81;7388589;19;20019;-62
2024/01/12 09:56:52;;;;;;;19.73;9.93;;;;;;;3.69;85.30;103169.13;7387376;19;20019;-61
2024/01/12 09:59:22;;;;;;;20.77;10.38;;;;;;;3.79;85.23;103165.56;7388345;19;20011;-61
2024/01/12 10:01:51;;;;;;;21.13;9.57;;;;;;;3.86;84.98;103164.66;7390254;19;20022;-61
2024/01/12 10:04:18;;;;;;;18.83;9.48;;;;;;;3.98;84.81;103169.81;7390219;19;20021;-60
2024/01/12 10:06:46;;;;;;;22.83;10.00;;;;;;;3.96;84.55;103168.06;7388571;19;20448;-63
2024/01/12 10:09:17;;;;;;;21.77;9.70;;;;;;;3.89;85.10;103164.63;7390992;19;20011;-61
2024/01/12 10:11:45;;;;;;;19.52;8.98;;;;;;;3.90;85.13;103162.00;7390176;19;20073;-61
2024/01/12 10:14:19;;;;;;;27.48;10.52;;;;;;;4.00;85.18;103159.31;7389937;19;20665;-62
2024/01/12 10:16:57;;;;;;;20.77;9.90;;;;;;;3.98;85.02;103156.72;7389757;19;20131;-62
2024/01/12 10:19:26;;;;;;;25.77;11.13;;;;;;;3.97;85.15;103170.69;7386168;19;20337;-62
2024/01/12 10:21:55;;;;;;;21.90;10.50;;;;;;;3.98;85.28;103163.69;7389789;19;20035;-62
2024/01/12 10:24:23;;;;;;;21.27;9.63;;;;;;;3.89;85.31;103162.91;7389242;19;20026;-62
2024/01/12 10:26:52;;;;;;;20.65;8.60;;;;;;;3.90;85.26;103164.63;7390487;19;20011;-63
2024/01/12 10:29:20;;;;;;;18.15;8.05;;;;;;;4.00;85.15;103168.03;7387808;19;20483;-62
2024/01/12 10:31:49;;;;;;;20.15;9.00;;;;;;;4.01;85.10;103168.94;7388014;19;20023;-62
2024/01/12 10:34:17;;;;;;;21.60;9.05;;;;;;;4.00;85.35;103162.78;7389525;19;20023;-62
2024/01/12 10:36:49;;;;;;;21.35;9.02;;;;;;;4.11;85.25;103178.44;7389828;19;20023;-62
2024/01/12 10:39:19;;;;;;;19.83;10.02;;;;;;;4.15;84.90;103167.06;7389158;19;20432;-62
2024/01/12 10:41:47;;;;;;;17.30;9.32;;;;;;;4.04;85.57;103159.25;7390118;19;20027;-62
2024/01/12 10:44:24;;;;;;;21.05;10.15;;;;;;;4.09;85.36;103161.88;7388694;19;20015;-63
2024/01/12 10:46:57;;;;;;;21.15;9.27;;;;;;;4.03;85.18;103164.53;7388519;19;20031;-63
2024/01/12 10:49:26;;;;;;;16.90;7.82;;;;;;;4.01;85.61;103159.31;7388166;19;20091;-63
2024/01/12 10:52:06;;;;;;;17.08;8.25;;;;;;;4.13;85.60;103158.34;7389521;19;20532;-63
2024/01/12 10:54:45;;;;;;;14.60;7.35;;;;;;;4.13;85.70;103150.47;7388926;19;20029;-63
2024/01/12 10:57:14;;;;;;;16.63;7.32;;;;;;;4.09;85.93;103143.53;7389295;19;20022;-63
2024/01/12 10:59:44;;;;;;;15.80;7.45;;;;;;;4.18;85.67;103150.44;7387351;19;20033;-63
2024/01/12 11:02:13;;;;;;;17.77;8.40;;;;;;;4.18;85.62;103143.44;7390072;19;20042;-64
2024/01/12 11:04:43;;;;;;;17.63;8.07;;;;;;;4.11;85.97;103141.75;7387257;19;20026;-63
2024/01/12 11:07:12;;;;;;;19.27;7.63;;;;;;;4.02;86.09;103131.34;7388946;19;20022;-63
2024/01/12 11:09:41;;;;;;;16.48;7.53;;;;;;;4.06;86.13;103133.06;7396760;19;20502;-63
2024/01/12 11:12:14;;;;;;;17.23;7.38;;;;;;;4.16;85.95;103126.88;7395621;19;20010;-63
2024/01/12 11:14:52;;;;;;;16.70;7.35;;;;;;;4.15;85.94;103118.09;7395273;19;20490;-63
2024/01/12 11:17:28;;;;;;;18.98;7.78;;;;;;;4.17;85.89;103107.63;7396581;19;20373;-63
2024/01/12 11:20:26;;;;;;;18.92;7.25;;;;;;;4.30;85.84;103122.34;7392142;19;20026;-61
2024/01/12 11:22:55;;;;;;;17.00;7.05;;;;;;;4.31;86.23;103110.09;7394983;19;20010;-61
2024/01/12 11:25:24;;;;;;;18.85;6.70;;;;;;;4.40;85.33;103108.25;7395864;19;20487;-62
2024/01/12 11:27:53;;;;;;;18.75;7.15;;;;;;;4.32;85.59;103101.34;7394577;19;20019;-63